Time;durP1;ratioP1;P1;durP2;ratioP2;P2;SDS_P1;SDS_P2;PMS_P1;PMS_P2;Temp;Humidity;BMP_temperature;BMP_pressure;BME280_temperature;BME280_humidity;BME280_pressure;Samples;Min_cycle;Max_cycle;Signal;HPM_P1;HPM_P2
2021/12/06 00:00:59;;;;;;;7.17;4.50;;;8.30;88.40;;;7.32;58.78;97936.13;4877520;28;114449;-86
2021/12/06 00:03:48;;;;;;;5.33;4.10;;;6.70;86.90;;;7.31;58.91;97937.28;4876594;28;122338;-86
2021/12/06 00:06:20;;;;;;;7.63;5.03;;;6.80;87.10;;;7.28;59.10;97943.38;4861856;28;121886;-86
2021/12/06 00:08:48;;;;;;;6.67;4.47;;;7.30;87.40;;;7.27;58.94;97942.56;4860500;28;113418;-87
2021/12/06 00:11:15;;;;;;;7.63;4.73;;;7.80;88.00;;;7.25;59.44;97947.56;4856066;28;113590;-86
2021/12/06 00:14:02;;;;;;;6.70;4.33;;;6.70;87.10;;;7.26;59.03;97945.63;4879421;28;122408;-87
2021/12/06 00:16:30;;;;;;;7.40;4.47;;;6.70;87.00;;;7.23;58.89;97946.25;4858270;28;123367;-86
2021/12/06 00:18:57;;;;;;;5.97;4.00;;;7.30;87.60;;;7.21;59.20;97948.50;4892129;28;112754;-86
2021/12/06 00:21:24;;;;;;;6.70;4.10;;;6.60;87.10;;;7.20;59.29;97953.19;4858810;28;112147;-86
2021/12/06 00:23:52;;;;;;;7.47;4.80;;;7.10;87.50;;;7.17;59.16;97953.78;4873534;28;123450;-86
2021/12/06 00:26:19;;;;;;;6.80;4.53;;;6.60;87.10;;;7.17;59.64;97963.97;4869722;28;123347;-85
2021/12/06 00:28:56;;;;;;;7.40;4.53;;;6.60;87.30;;;7.14;59.48;97956.34;4881958;28;114505;-86
2021/12/06 00:31:32;;;;;;;8.23;5.20;;;6.50;87.20;;;7.16;59.45;97959.59;4861006;28;112472;-86
2021/12/06 00:34:04;;;;;;;5.40;4.23;;;6.60;87.30;;;7.10;59.54;97956.16;4863838;28;122583;-86
2021/12/06 00:36:33;;;;;;;6.20;4.70;;;7.60;88.20;;;7.08;59.30;97956.47;4879159;28;124180;-85
2021/12/06 00:39:03;;;;;;;4.93;3.90;;;6.60;87.50;;;7.07;59.72;97960.34;4874378;28;113449;-86
2021/12/06 00:41:29;;;;;;;5.30;3.97;;;7.00;87.70;;;7.04;59.66;97960.97;4859502;28;113075;-85
2021/12/06 00:43:57;;;;;;;7.47;4.50;;;8.00;88.80;;;7.04;59.31;97971.97;4870199;28;123153;-85
2021/12/06 00:46:24;;;;;;;7.63;4.40;;;6.50;87.50;;;7.06;59.34;97971.63;4891285;28;123358;-86
2021/12/06 00:48:50;;;;;;;7.40;4.17;;;8.20;89.00;;;7.02;59.13;97968.69;4869067;28;113729;-86
2021/12/06 00:51:19;;;;;;;6.23;4.07;;;6.50;88.10;;;7.02;59.50;97973.38;4858802;28;115501;-86
2021/12/06 00:53:47;;;;;;;9.03;4.60;;;6.50;87.40;;;7.01;59.85;97971.75;4874465;28;122918;-85
2021/12/06 00:56:14;;;;;;;6.53;4.30;;;6.60;87.60;;;7.00;59.62;97981.94;4877497;28;122047;-86
2021/12/06 00:59:38;;;;;;;6.87;4.20;;;6.40;87.40;;;7.00;59.71;97981.13;4875945;28;112666;-86
2021/12/06 01:02:06;;;;;;;7.67;4.27;;;5.80;86.80;;;6.94;59.07;97987.84;4892719;28;113002;-86
2021/12/06 01:04:37;;;;;;;6.20;4.70;;;7.80;88.60;;;6.90;59.51;97982.16;4859408;28;123521;-85
2021/12/06 01:07:07;;;;;;;5.10;4.00;;;6.40;87.30;;;6.85;59.69;97985.00;4864694;28;122405;-86
2021/12/06 01:09:35;;;;;;;7.10;4.67;;;7.10;87.90;;;6.81;59.48;97987.56;4857986;28;112573;-86
2021/12/06 01:12:03;;;;;;;6.53;4.30;;;6.30;87.30;;;6.78;59.97;97990.13;4893331;28;112461;-85
2021/12/06 01:14:30;;;;;;;13.33;5.43;;;6.30;87.30;;;6.75;59.72;97994.28;4874509;28;123137;-86
2021/12/06 01:17:34;;;;;;;7.60;4.60;;;7.60;88.70;;;6.77;59.36;97999.44;4870178;28;121851;-86
2021/12/06 01:20:08;;;;;;;5.40;4.37;;;6.30;87.30;;;6.72;59.70;97996.84;4872804;28;112781;-86
2021/12/06 01:22:51;;;;;;;5.23;4.27;;;6.20;87.30;;;6.68;59.82;98010.34;4875014;28;113473;-86
2021/12/06 01:25:30;;;;;;;8.37;4.83;;;6.20;87.40;;;6.66;59.92;98014.53;4884020;28;123533;-86
2021/12/06 01:41:43;;;;;;;7.17;4.90;;;6.90;88.40;;;6.54;59.95;98050.72;4890791;28;114891;-86
2021/12/06 01:44:20;;;;;;;8.57;5.57;;;6.10;87.90;;;6.53;60.26;98049.91;4844174;28;114314;-85
2021/12/06 01:47:05;;;;;;;7.23;5.30;;;6.00;87.70;;;6.50;60.21;98050.53;4864892;28;122516;-85
2021/12/06 01:49:44;;;;;;;4.93;4.40;;;6.00;87.80;;;6.50;60.43;98055.19;4864513;28;122884;-86
2021/12/06 01:52:25;;;;;;;6.90;5.13;;;5.80;87.70;;;6.47;60.23;98053.84;4882762;28;112613;-86
2021/12/06 01:55:48;;;;;;;7.70;5.70;;;5.40;87.50;;;6.44;60.37;98054.47;4879992;28;112671;-85
2021/12/06 01:58:53;;;;;;;6.77;5.23;;;5.90;87.80;;;6.40;60.77;98057.00;4876549;28;122299;-86
2021/12/06 02:01:21;;;;;;;8.80;5.87;;;5.90;87.90;;;6.37;60.25;98054.88;4866929;28;122435;-86
2021/12/06 02:04:07;;;;;;;8.10;5.47;;;5.90;88.10;;;6.40;60.49;98056.19;4879463;28;114078;-83
2021/12/06 02:07:15;;;;;;;6.90;5.97;;;5.10;87.40;;;6.41;60.65;98058.63;4892069;28;113341;-85
2021/12/06 02:10:20;;;;;;;7.57;5.50;;;5.80;88.10;;;6.41;60.02;98053.13;4861125;28;122531;-86
2021/12/06 02:13:08;;;;;;;7.93;5.70;;;5.80;88.10;;;6.39;60.60;98054.56;4847394;28;122201;-86
2021/12/06 02:16:18;;;;;;;8.40;5.57;;;5.10;87.50;;;6.41;60.84;98052.34;4860829;28;113719;-85
2021/12/06 02:18:51;;;;;;;8.53;5.07;;;5.80;88.20;;;6.40;60.65;98067.19;4861127;28;113318;-85
2021/12/06 02:22:14;;;;;;;7.80;5.70;;;5.80;88.40;;;6.44;60.89;98068.19;4844625;28;123670;-86
2021/12/06 02:24:41;;;;;;;7.27;5.50;;;5.80;88.30;;;6.43;60.31;98069.31;4879889;28;121271;-86
2021/12/06 02:27:28;;;;;;;6.23;5.03;;;7.30;89.60;;;6.46;60.64;98076.94;4875018;28;114361;-86
2021/12/06 02:30:00;;;;;;;9.83;5.80;;;5.90;88.30;;;6.47;60.71;98078.53;4863567;28;112555;-85
2021/12/06 02:33:06;;;;;;;10.07;5.40;;;6.80;89.30;;;6.52;60.76;98086.69;4890248;28;123904;-87
2021/12/06 02:35:53;;;;;;;7.80;5.53;;;5.80;88.40;;;6.49;60.32;98079.06;4866053;28;122749;-86
2021/12/06 02:38:38;;;;;;;6.37;5.10;;;5.50;88.10;;;6.52;60.06;98086.69;4865116;28;113827;-86
2021/12/06 02:41:08;;;;;;;11.27;6.20;;;6.00;88.50;;;6.50;60.20;98079.88;4862650;28;113677;-86
2021/12/06 02:44:15;;;;;;;8.67;6.30;;;6.50;89.00;;;6.54;60.42;98084.47;4878096;28;122203;-86
2021/12/06 02:50:45;;;;;;;7.17;5.77;;;7.20;89.60;;;6.47;60.58;98089.53;4862657;28;113646;-86
2021/12/06 02:59:59;;;;;;;9.20;5.20;;;6.80;89.20;;;6.39;60.51;98092.97;4849293;28;123757;-86
2021/12/06 03:02:47;;;;;;;8.93;5.53;;;5.90;88.40;;;6.39;60.42;98101.19;4846821;28;113000;-86
2021/12/06 03:05:14;;;;;;;8.90;6.00;;;5.80;88.30;;;6.39;60.82;98103.94;4861459;28;113736;-86
2021/12/06 03:07:41;;;;;;;9.87;5.83;;;7.10;89.50;;;6.41;60.57;98104.47;4844049;28;123153;-86
2021/12/06 03:10:09;;;;;;;8.30;6.23;;;4.70;87.40;;;6.41;61.13;98113.50;4842893;28;122274;-85
2021/12/06 03:12:36;;;;;;;9.20;6.63;;;5.90;88.40;;;6.42;60.58;98106.06;4847262;28;112964;-86
2021/12/06 03:15:06;;;;;;;7.40;6.30;;;6.20;89.00;;;6.44;60.68;98101.09;4859247;28;113263;-85
2021/12/06 03:17:34;;;;;;;7.80;6.13;;;5.90;88.60;;;6.43;60.54;98096.75;4847251;28;122576;-86
2021/12/06 03:20:22;;;;;;;11.43;6.97;;;5.80;88.50;;;6.43;60.58;98112.41;4831516;29;122907;-86
2021/12/06 03:22:50;;;;;;;7.37;6.47;;;5.80;88.50;;;6.35;60.75;98113.91;4843692;29;112900;-86
2021/12/06 03:25:36;;;;;;;9.70;6.90;;;7.00;89.60;;;6.39;60.75;98114.91;4860528;28;112636;-86
2021/12/06 03:29:00;;;;;;;9.70;6.60;;;5.80;88.50;;;6.38;60.98;98114.09;4861630;28;122213;-86
2021/12/06 03:31:27;;;;;;;8.07;6.50;;;4.60;87.60;;;6.36;60.64;98123.75;4867404;28;123144;-87
2021/12/06 03:33:57;;;;;;;8.50;5.90;;;5.80;88.80;;;6.38;60.87;98121.53;4854085;29;115205;-86
2021/12/06 03:36:28;;;;;;;9.47;6.67;;;7.20;90.00;;;6.39;61.12;98126.72;4842002;29;114783;-86
2021/12/06 03:39:23;;;;;;;8.60;6.03;;;5.80;88.90;;;6.41;60.80;98127.22;4846840;28;122451;-88
2021/12/06 03:41:55;;;;;;;7.90;6.40;;;5.80;88.80;;;6.38;61.25;98141.53;4846390;28;123353;-87
2021/12/06 03:44:24;;;;;;;8.60;6.37;;;5.80;88.90;;;6.38;60.68;98148.97;4874101;28;112937;-86
2021/12/06 03:47:30;;;;;;;8.20;6.53;;;4.60;88.40;;;6.41;60.68;98149.16;4858838;28;112325;-85
2021/12/06 03:49:58;;;;;;;8.63;7.37;;;5.80;88.90;;;6.38;61.02;98157.19;4848920;28;123279;-86
2021/12/06 03:52:26;;;;;;;8.80;6.83;;;7.20;90.10;;;6.36;60.75;98153.94;4876197;28;121815;-85
2021/12/06 03:54:54;;;;;;;7.90;6.60;;;6.30;89.50;;;6.38;60.55;98157.19;4838251;29;113257;-86
2021/12/06 03:57:59;;;;;;;10.80;7.10;;;7.30;90.10;;;6.41;60.48;98159.34;4819552;29;112437;-87
2021/12/06 04:00:44;;;;;;;12.90;7.50;;;5.80;89.00;;;6.35;60.80;98157.81;4817307;29;123213;-85
2021/12/06 04:03:12;;;;;;;9.17;7.13;;;5.80;89.10;;;6.31;60.97;98162.25;4821843;29;123472;-86
2021/12/06 04:05:39;;;;;;;8.93;7.20;;;5.80;89.20;;;6.32;61.01;98169.38;4804027;29;112642;-86
2021/12/06 04:11:48;;;;;;;10.53;8.23;;;5.80;89.20;;;6.29;61.21;98170.00;4838520;29;123818;-86
2021/12/06 04:15:12;;;;;;;10.70;8.40;;;6.40;89.90;;;6.28;61.18;98173.81;4822051;29;122207;-87
2021/12/06 04:17:41;;;;;;;10.70;8.27;;;5.80;89.40;;;6.25;61.10;98174.44;4837404;29;113626;-87
2021/12/06 04:20:11;;;;;;;9.10;6.87;;;6.40;90.00;;;6.27;61.25;98183.19;4809162;29;112317;-85
2021/12/06 04:22:39;;;;;;;10.93;8.80;;;5.60;89.40;;;6.29;61.43;98180.97;4839188;29;122061;-86
2021/12/06 04:25:09;;;;;;;12.00;9.50;;;7.20;90.40;;;6.28;61.23;98190.28;4841995;28;123174;-86
2021/12/06 04:28:15;;;;;;;11.80;9.30;;;5.70;89.60;;;6.33;61.24;98192.94;4844049;28;114853;-86
2021/12/06 04:30:43;;;;;;;9.17;7.90;;;5.70;89.60;;;6.32;61.73;98196.81;4833929;28;113585;-88
2021/12/06 04:33:30;;;;;;;15.40;9.77;;;6.70;90.20;;;6.33;61.75;98190.22;4867460;28;122440;-89
2021/12/06 04:35:58;;;;;;;15.77;10.27;;;5.80;89.80;;;6.32;61.29;98202.31;4855540;29;123081;-88
2021/12/06 04:38:31;;;;;;;14.60;11.00;;;5.30;89.40;;;6.32;61.55;98203.13;4861486;28;113394;-87
2021/12/06 04:41:00;;;;;;;13.77;10.07;;;5.70;89.80;;;6.28;62.00;98193.84;4848919;29;113452;-87
2021/12/06 04:43:29;;;;;;;13.90;10.53;;;7.40;90.60;;;6.28;61.81;98198.50;4847914;28;124151;-86
2021/12/06 04:45:56;;;;;;;16.47;10.57;;;7.20;90.50;;;6.26;61.92;98206.22;4860448;28;123385;-86
2021/12/06 04:48:23;;;;;;;14.93;10.40;;;5.70;89.90;;;6.26;61.63;98208.97;4857496;28;112871;-86
2021/12/06 04:50:50;;;;;;;14.60;9.80;;;6.90;90.50;;;6.25;62.17;98212.84;4868618;28;112585;-86
2021/12/06 04:53:38;;;;;;;14.63;9.63;;;7.20;90.60;;;6.29;61.75;98227.59;4894087;28;122482;-86
2021/12/06 04:56:18;;;;;;;16.53;10.87;;;5.60;90.00;;;6.30;61.50;98223.72;4863433;28;124676;-86
2021/12/06 04:59:01;;;;;;;15.30;9.97;;;5.60;90.00;;;6.31;61.51;98230.84;4878918;28;113792;-85
2021/12/06 05:01:30;;;;;;;12.30;8.83;;;4.90;89.40;;;6.29;61.59;98235.81;4878868;28;112040;-85
2021/12/06 05:04:05;;;;;;;14.30;10.40;;;7.20;90.60;;;6.33;62.24;98232.16;4859325;28;122010;-86
2021/12/06 05:06:38;;;;;;;14.53;10.47;;;5.70;90.10;;;6.35;61.75;98240.91;4870017;28;122693;-86
2021/12/06 05:09:14;;;;;;;16.37;10.20;;;5.80;90.10;;;6.37;61.84;98235.97;4878367;28;113743;-87
2021/12/06 05:11:43;;;;;;;15.63;9.90;;;7.30;90.80;;;6.37;62.14;98243.38;4861879;28;113662;-87
2021/12/06 05:14:12;;;;;;;17.40;10.70;;;6.70;90.60;;;6.38;61.76;98245.81;4876937;28;122601;-86
2021/12/06 05:16:38;;;;;;;16.77;12.27;;;6.80;90.50;;;6.35;61.58;98245.59;4875544;28;123708;-87
2021/12/06 05:19:06;;;;;;;12.60;9.37;;;7.40;91.20;;;6.38;61.57;98251.28;4877149;28;113480;-87
2021/12/06 05:21:52;;;;;;;13.13;9.67;;;7.40;90.80;;;6.39;61.40;98252.09;4879138;28;114661;-86
2021/12/06 05:24:19;;;;;;;15.23;9.70;;;4.80;89.50;;;6.37;62.05;98265.31;4891774;28;122425;-86
2021/12/06 05:27:28;;;;;;;17.70;11.80;;;7.40;90.80;;;6.40;62.12;98278.44;4874128;28;123266;-88
2021/12/06 05:30:16;;;;;;;15.70;9.73;;;5.90;90.20;;;6.37;62.20;98285.34;4858410;28;112651;-86
2021/12/06 05:32:43;;;;;;;15.10;11.20;;;5.80;90.10;;;6.33;62.05;98292.53;4857471;28;113852;-86
2021/12/06 05:35:31;;;;;;;15.40;10.40;;;7.20;90.70;;;6.35;61.72;98289.50;4871585;28;123419;-87
2021/12/06 05:38:02;;;;;;;15.93;10.57;;;5.70;90.10;;;6.32;62.17;98290.09;4886820;28;122158;-86
2021/12/06 05:40:34;;;;;;;14.57;10.90;;;5.80;90.30;;;6.30;61.80;98284.91;4869870;28;112478;-86
2021/12/06 05:43:04;;;;;;;13.50;9.70;;;5.70;90.10;;;6.29;61.96;98290.69;4875113;28;113914;-87
2021/12/06 05:45:33;;;;;;;14.87;10.73;;;7.00;90.60;;;6.28;61.70;98300.00;4872861;28;122508;-87
2021/12/06 05:47:59;;;;;;;15.80;10.50;;;6.80;90.90;;;6.28;61.83;98300.81;4842727;28;123234;-87
2021/12/06 05:50:26;;;;;;;15.60;10.83;;;7.30;90.80;;;6.28;61.86;98300.00;4859645;28;113863;-86
2021/12/06 05:52:57;;;;;;;13.37;9.80;;;6.10;90.40;;;6.29;62.22;98307.97;4862046;28;112450;-86
2021/12/06 05:55:29;;;;;;;16.40;10.87;;;7.40;90.80;;;6.28;62.28;98316.47;4877976;28;122459;-85
2021/12/06 05:58:02;;;;;;;13.57;9.77;;;7.20;90.80;;;6.26;62.20;98318.69;4874773;28;122304;-85
2021/12/06 06:00:48;;;;;;;13.80;9.53;;;4.80;90.10;;;6.24;61.81;98320.94;4868310;28;112787;-86
2021/12/06 06:03:17;;;;;;;16.33;10.30;;;5.80;90.10;;;6.16;62.46;98323.22;4873046;28;113850;-86
2021/12/06 06:05:46;;;;;;;13.00;8.60;;;7.00;90.70;;;6.14;62.33;98328.19;4876669;28;123449;-86
2021/12/06 06:08:13;;;;;;;13.77;9.50;;;5.70;90.20;;;6.11;61.98;98333.44;4880057;28;123984;-86
2021/12/06 06:10:40;;;;;;;15.40;10.20;;;7.30;90.80;;;6.12;62.69;98341.38;4843544;28;114282;-86
2021/12/06 06:13:08;;;;;;;10.83;9.10;;;5.30;90.00;;;6.13;62.19;98343.00;4889832;28;114457;-87
2021/12/06 06:15:36;;;;;;;13.87;9.77;;;6.30;90.50;;;6.11;62.11;98356.19;4858511;28;123354;-85
2021/12/06 06:18:05;;;;;;;14.07;9.47;;;5.60;90.30;;;6.12;62.63;98349.59;4856334;28;124061;-86
2021/12/06 06:20:45;;;;;;;12.90;8.90;;;5.60;90.20;;;6.14;61.65;98352.06;4856658;28;113221;-87
2021/12/06 06:23:15;;;;;;;13.13;9.67;;;7.10;90.90;;;6.13;62.18;98351.25;4846942;28;113276;-87
2021/12/06 06:25:44;;;;;;;12.90;9.27;;;5.40;90.20;;;6.14;62.25;98361.09;4873802;28;122423;-86
2021/12/06 06:28:32;;;;;;;13.37;9.03;;;5.50;90.30;;;6.14;62.35;98360.28;4886767;28;123528;-87
2021/12/06 06:30:59;;;;;;;15.33;10.23;;;5.60;90.30;;;6.08;62.28;98364.22;4879023;28;112619;-85
2021/12/06 06:33:27;;;;;;;14.00;9.47;;;6.80;90.80;;;6.08;62.14;98370.50;4873382;28;113156;-87
2021/12/06 06:35:53;;;;;;;15.07;10.67;;;6.40;90.70;;;6.07;62.68;98371.63;4858163;28;123264;-87
2021/12/06 06:38:20;;;;;;;14.70;10.50;;;5.50;90.60;;;6.09;62.49;98372.13;4878093;28;124067;-87
2021/12/06 06:41:25;;;;;;;12.70;10.13;;;5.80;90.50;;;6.15;62.77;98379.19;4877828;28;113184;-87
2021/12/06 06:43:53;;;;;;;11.93;8.93;;;5.50;90.50;;;6.14;62.54;98385.78;4848710;28;112160;-87
2021/12/06 06:46:20;;;;;;;16.63;10.60;;;6.60;90.90;;;6.17;62.82;98389.84;4862184;28;123061;-85
2021/12/06 06:48:46;;;;;;;15.67;10.50;;;5.70;90.60;;;6.19;62.81;98398.63;4876746;28;124044;-87
2021/12/06 06:51:13;;;;;;;18.73;11.40;;;7.00;91.20;;;6.22;62.64;98395.28;4845955;28;114225;-87
2021/12/06 06:53:40;;;;;;;14.30;10.90;;;5.70;90.80;;;6.27;62.81;98402.66;4824279;28;113291;-85
2021/12/06 06:56:06;;;;;;;17.73;12.20;;;4.30;90.30;;;6.28;63.38;98404.25;4839816;29;123003;-87
2021/12/06 06:58:35;;;;;;;16.23;11.13;;;6.20;91.10;;;6.32;63.16;98410.81;4856953;28;121946;-87
2021/12/06 07:01:02;;;;;;;14.80;10.57;;;5.70;90.90;;;6.31;62.95;98420.94;4856150;28;113152;-87
2021/12/06 07:03:31;;;;;;;16.47;11.70;;;5.70;90.90;;;6.35;62.74;98421.19;4837622;29;114123;-87
2021/12/06 07:06:01;;;;;;;18.00;11.90;;;6.40;91.10;;;6.35;63.13;98421.19;4839149;28;122497;-88
2021/12/06 07:08:28;;;;;;;16.67;10.73;;;5.70;90.90;;;6.31;63.02;98431.91;4858264;28;122862;-88
2021/12/06 07:10:57;;;;;;;18.00;11.40;;;6.90;91.30;;;6.27;62.97;98433.63;4853881;28;114394;-87
2021/12/06 07:13:27;;;;;;;16.53;11.77;;;6.80;91.10;;;6.25;62.86;98432.28;4876951;28;113117;-87
2021/12/06 07:15:55;;;;;;;19.57;11.20;;;5.40;90.60;;;6.19;62.71;98424.13;4854389;28;123524;-87
2021/12/06 07:18:22;;;;;;;16.40;11.60;;;5.60;90.70;;;6.19;62.70;98428.78;4842877;28;121936;-87
2021/12/06 07:20:50;;;;;;;15.80;10.60;;;5.70;90.80;;;6.19;62.72;98435.09;4861073;28;113886;-86
2021/12/06 07:24:12;;;;;;;16.83;11.70;;;5.40;90.70;;;6.18;62.71;98438.13;4854693;28;113571;-87
2021/12/06 07:26:39;;;;;;;19.40;12.10;;;5.70;90.70;;;6.15;63.14;98444.19;4855267;28;123066;-87
2021/12/06 07:29:25;;;;;;;17.70;12.23;;;5.70;91.00;;;6.20;63.98;98441.38;4871173;28;122513;-87
2021/12/06 07:31:52;;;;;;;21.47;13.40;;;5.60;91.30;;;6.26;64.40;98444.88;4840449;28;113899;-86
2021/12/06 07:34:20;;;;;;;22.50;14.23;;;5.70;91.80;;;6.34;64.50;98452.47;4847075;29;113621;-88
2021/12/06 07:37:06;;;;;;;19.73;12.97;;;5.70;91.90;;;6.43;63.99;98461.69;4866874;28;125507;-89
2021/12/06 07:39:34;;;;;;;18.07;11.17;;;5.80;91.70;;;6.48;64.57;98458.09;4856343;28;123920;-88
2021/12/06 07:42:00;;;;;;;17.90;11.60;;;5.90;91.70;;;6.52;64.58;98459.91;4845251;28;113658;-85
2021/12/06 07:44:27;;;;;;;20.60;10.37;;;5.90;91.70;;;6.58;64.49;98458.75;4866862;28;112560;-87
2021/12/06 07:46:53;;;;;;;20.20;13.00;;;6.00;91.70;;;6.61;64.16;98463.66;4846166;28;123777;-83
2021/12/06 07:49:21;;;;;;;16.30;10.47;;;7.60;92.20;;;6.63;64.23;98463.34;4887009;28;122827;-88
2021/12/06 07:51:49;;;;;;;18.43;11.73;;;6.10;91.50;;;6.63;63.73;98463.34;4870052;28;114535;-89
2021/12/06 07:54:17;;;;;;;16.23;11.30;;;6.70;91.70;;;6.61;63.66;98473.81;4864449;28;113293;-87
2021/12/06 07:56:44;;;;;;;19.50;12.70;;;6.10;91.40;;;6.60;63.47;98475.72;4867638;28;122168;-86
2021/12/06 07:59:11;;;;;;;25.27;12.10;;;6.10;91.30;;;6.52;63.39;98470.91;4875118;28;123431;-87
2021/12/06 08:01:37;;;;;;;16.80;11.00;;;5.90;91.00;;;6.47;63.06;98468.22;4880015;28;113267;-86
2021/12/06 08:04:05;;;;;;;23.07;11.90;;;6.00;91.10;;;6.48;63.24;98480.84;4861949;28;113259;-86
2021/12/06 08:06:31;;;;;;;17.73;11.80;;;6.00;91.00;;;6.48;62.99;98480.84;4875235;28;124259;-86
2021/12/06 08:08:58;;;;;;;18.13;12.10;;;6.00;91.00;;;6.49;63.00;98478.91;4875546;28;122835;-86
2021/12/06 08:11:25;;;;;;;17.97;11.27;;;7.60;91.70;;;6.49;62.86;98479.72;4877492;28;112575;-88
2021/12/06 08:13:56;;;;;;;16.20;10.80;;;6.00;90.90;;;6.49;62.58;98481.66;4859265;28;113350;-87
2021/12/06 08:16:30;;;;;;;15.73;10.80;;;5.80;90.90;;;6.53;62.57;98482.69;4859596;28;123509;-86
2021/12/06 08:18:59;;;;;;;17.30;10.70;;;7.40;91.60;;;6.52;62.68;98479.13;4874208;28;123701;-86
2021/12/06 08:21:27;;;;;;;16.70;10.53;;;5.40;90.70;;;6.57;63.14;98494.72;4873583;28;113334;-86
2021/12/06 08:23:56;;;;;;;17.80;11.50;;;7.10;91.40;;;6.58;62.40;98491.69;4868898;28;112272;-86
2021/12/06 08:26:29;;;;;;;20.00;12.43;;;6.50;91.20;;;6.56;62.61;98491.16;4880062;28;123433;-86
2021/12/06 08:28:57;;;;;;;14.57;10.00;;;6.00;90.90;;;6.54;62.75;98493.38;4875499;28;123075;-87
2021/12/06 08:31:27;;;;;;;16.77;10.67;;;6.00;90.90;;;6.51;62.56;98499.47;4877977;28;114024;-88
2021/12/06 08:33:54;;;;;;;14.97;9.97;;;6.00;90.90;;;6.54;62.98;98500.81;4862802;28;113227;-86
2021/12/06 08:36:24;;;;;;;14.10;9.90;;;6.10;90.80;;;6.51;62.71;98499.47;4892804;28;123998;-87
2021/12/06 08:38:52;;;;;;;16.00;10.20;;;6.00;90.80;;;6.47;62.40;98505.81;4891982;28;123761;-87
2021/12/06 08:41:23;;;;;;;14.80;9.90;;;6.00;90.80;;;6.47;62.46;98503.88;4889346;28;115353;-86
2021/12/06 08:43:53;;;;;;;16.70;10.00;;;5.90;90.70;;;6.44;62.74;98511.91;4875897;28;114624;-86
2021/12/06 08:46:40;;;;;;;16.87;10.87;;;6.00;90.80;;;6.41;62.71;98514.13;4873911;28;123376;-86
2021/12/06 08:49:09;;;;;;;17.03;10.70;;;6.00;90.70;;;6.33;63.04;98528.47;4874000;28;122460;-85
2021/12/06 08:51:44;;;;;;;16.57;11.10;;;5.90;90.70;;;6.29;62.71;98523.88;4877828;28;113356;-86
2021/12/06 08:54:14;;;;;;;14.27;9.80;;;5.80;90.70;;;6.24;63.02;98526.69;4875300;28;113978;-88
2021/12/06 08:56:41;;;;;;;19.33;9.77;;;5.80;90.70;;;6.24;62.66;98523.94;4863944;28;122945;-88
2021/12/06 08:59:08;;;;;;;16.10;10.83;;;5.80;90.70;;;6.24;62.68;98524.75;4857945;28;123271;-86
2021/12/06 09:01:37;;;;;;;20.53;11.97;;;7.00;91.20;;;6.25;62.99;98520.88;4853957;28;113779;-86
2021/12/06 09:04:08;;;;;;;17.40;10.93;;;5.80;90.80;;;6.23;62.86;98517.59;4867019;28;113243;-87
2021/12/06 09:06:37;;;;;;;13.93;9.60;;;5.80;90.80;;;6.19;62.31;98524.81;4874677;28;123309;-87
2021/12/06 09:09:07;;;;;;;17.67;10.27;;;5.80;90.80;;;6.16;63.16;98517.97;4860779;28;123877;-86
2021/12/06 09:11:39;;;;;;;17.10;9.60;;;5.80;90.80;;;6.19;63.26;98522.06;4883316;28;113645;-83
2021/12/06 09:14:07;;;;;;;16.20;9.13;;;5.80;90.90;;;6.19;63.16;98516.56;4865922;28;113881;-85
2021/12/06 09:16:39;;;;;;;18.40;10.57;;;5.80;90.90;;;6.24;63.54;98521.19;4892539;28;123546;-84
2021/12/06 09:19:08;;;;;;;15.60;9.40;;;5.80;90.90;;;6.29;62.87;98521.13;4879721;28;124323;-85
2021/12/06 09:21:37;;;;;;;12.83;8.50;;;5.80;91.00;;;6.35;63.37;98537.25;4872597;28;114111;-85
2021/12/06 09:24:08;;;;;;;16.43;10.23;;;7.40;91.70;;;6.42;63.62;98528.66;4865418;28;114005;-87
2021/12/06 09:26:36;;;;;;;13.50;8.93;;;5.90;91.40;;;6.47;63.16;98533.28;4874609;28;123975;-85
2021/12/06 09:29:05;;;;;;;14.53;9.30;;;5.90;91.10;;;6.52;62.77;98536.75;4872750;28;123589;-86
2021/12/06 09:31:32;;;;;;;12.80;9.10;;;5.50;90.90;;;6.54;62.79;98542.78;4860030;28;114674;-86
2021/12/06 09:34:00;;;;;;;16.67;9.60;;;6.60;91.40;;;6.57;63.20;98550.44;4879035;28;115727;-83
2021/12/06 09:36:27;;;;;;;13.27;9.27;;;6.00;91.10;;;6.53;63.03;98541.16;4854533;28;123914;-84
2021/12/06 09:38:54;;;;;;;18.07;9.90;;;5.90;91.00;;;6.57;63.26;98541.38;4872526;28;123870;-82
2021/12/06 09:41:27;;;;;;;12.07;8.20;;;5.70;90.90;;;6.59;63.11;98541.91;4861931;28;113683;-86
2021/12/06 09:43:58;;;;;;;12.80;8.70;;;6.00;91.00;;;6.62;63.03;98549.56;4882154;28;114176;-80
2021/12/06 09:46:28;;;;;;;13.10;8.37;;;6.10;91.10;;;6.63;62.94;98549.25;4871694;28;124687;-85
2021/12/06 09:48:55;;;;;;;15.03;8.57;;;6.10;91.00;;;6.65;62.89;98548.97;4847505;28;122934;-85
2021/12/06 09:51:25;;;;;;;14.73;9.17;;;6.80;91.30;;;6.68;62.65;98555.81;4858170;28;116237;-85
2021/12/06 09:53:57;;;;;;;11.87;8.53;;;7.00;91.30;;;6.69;62.87;98554.69;4873459;28;114410;-86
2021/12/06 09:56:32;;;;;;;11.83;8.10;;;6.10;90.90;;;6.73;62.89;98555.75;4873262;28;123868;-81
2021/12/06 09:59:02;;;;;;;14.10;9.30;;;6.20;91.00;;;6.75;62.78;98556.28;4880268;28;122960;-84
2021/12/06 10:01:37;;;;;;;14.40;9.70;;;6.20;91.00;;;6.78;62.96;98551.00;4855003;28;114556;-87
2021/12/06 10:04:07;;;;;;;13.90;9.47;;;6.40;91.10;;;6.77;62.90;98554.88;4859039;28;113756;-81
2021/12/06 10:06:34;;;;;;;14.20;8.30;;;6.60;91.10;;;6.80;62.70;98543.31;4867258;28;122823;-81
2021/12/06 10:09:08;;;;;;;17.00;9.50;;;6.20;90.90;;;6.85;62.14;98547.91;4870406;28;124185;-83
2021/12/06 10:11:35;;;;;;;14.50;8.87;;;6.20;90.90;;;6.84;62.32;98541.59;4868138;28;114276;-84
2021/12/06 10:14:02;;;;;;;14.83;8.87;;;4.80;90.20;;;6.87;62.35;98534.69;4888389;28;113332;-84
2021/12/06 10:16:29;;;;;;;11.10;8.23;;;6.30;90.80;;;6.89;62.25;98539.91;4873786;28;125065;-87
2021/12/06 10:18:56;;;;;;;14.40;9.50;;;6.30;90.80;;;6.93;62.51;98530.78;4873987;28;124205;-86
2021/12/06 10:21:27;;;;;;;13.50;8.33;;;6.40;90.80;;;6.98;62.43;98522.44;4857293;28;115400;-84
2021/12/06 10:23:59;;;;;;;13.47;8.70;;;6.70;91.00;;;7.04;61.96;98518.53;4886722;28;115007;-87
2021/12/06 10:26:30;;;;;;;12.00;7.80;;;6.40;90.80;;;7.07;62.18;98509.72;4886596;28;123163;-86
2021/12/06 10:29:06;;;;;;;13.00;8.00;;;6.50;90.80;;;7.11;62.22;98500.88;4874480;28;125276;-86
2021/12/06 10:31:34;;;;;;;12.07;8.40;;;6.50;90.70;;;7.11;61.95;98503.63;4884981;28;114181;-85
2021/12/06 10:34:01;;;;;;;15.27;8.47;;;6.50;90.60;;;7.12;61.51;98499.75;4857009;28;113797;-86
2021/12/06 10:36:30;;;;;;;11.80;7.90;;;7.40;90.90;;;7.10;61.76;98496.50;4868910;28;124359;-87
2021/12/06 10:39:06;;;;;;;11.63;7.50;;;6.60;90.40;;;7.10;61.06;98502.81;4874838;28;123603;-84
2021/12/06 10:41:52;;;;;;;10.30;6.40;;;6.60;90.30;;;7.10;61.32;98494.56;4880734;28;114215;-83
2021/12/06 10:44:20;;;;;;;9.20;7.10;;;6.50;90.20;;;7.13;60.84;98501.41;4881101;28;112895;-85
2021/12/06 10:46:51;;;;;;;12.73;7.73;;;6.60;90.20;;;7.16;61.53;98498.06;4902324;28;126115;-84
2021/12/06 10:49:22;;;;;;;10.67;7.30;;;6.60;90.20;;;7.21;61.07;98492.47;4880366;28;123492;-84
2021/12/06 10:51:50;;;;;;;10.87;6.80;;;6.70;90.20;;;7.27;60.57;98494.03;4896431;28;115704;-87
2021/12/06 10:54:35;;;;;;;11.13;6.90;;;8.00;90.70;;;7.27;60.55;98494.84;4894572;28;114220;-85
2021/12/06 10:57:04;;;;;;;8.00;5.20;;;6.70;90.00;;;7.29;60.79;98491.81;4876525;28;122733;-86
2021/12/06 10:59:37;;;;;;;11.47;6.63;;;6.70;90.00;;;7.34;60.24;98497.22;4855176;29;123594;-86
2021/12/06 11:02:11;;;;;;;11.67;7.90;;;6.70;89.80;;;7.39;60.25;98494.41;4856927;28;113955;-86
2021/12/06 11:04:40;;;;;;;11.77;6.40;;;6.80;89.60;;;7.35;60.21;98487.03;4858397;28;113936;-84
2021/12/06 11:07:08;;;;;;;9.60;5.83;;;6.80;89.40;;;7.36;60.29;98492.25;4873435;28;124804;-87
2021/12/06 11:09:42;;;;;;;11.57;6.80;;;7.00;89.50;;;7.40;60.15;98492.47;4875057;28;123171;-88
2021/12/06 11:12:18;;;;;;;10.67;6.27;;;6.90;89.30;;;7.41;59.55;98497.66;4856971;28;114492;-86
2021/12/06 11:14:48;;;;;;;8.00;5.33;;;6.90;89.10;;;7.39;59.66;98491.66;4863343;28;115919;-87
2021/12/06 11:17:19;;;;;;;8.43;5.70;;;6.90;88.70;;;7.39;59.03;98494.41;4870274;28;124479;-86